• Join FlightAware (Why Join?)
  • Login
  • US Flag 
06:43PM EDT


 

Airport Tracker/Info


-or-


 

Live Flight TrackerFlight Track Log ✈ N9092X ✈ 06-Jul-2014 ✈ KMXE - KSBY

Flight Track Log - Related Links

Times and Time Zones

All times are in EDT time to prevent confusion due to time zone crossing. See the N9092X flight status page for this flight to view local times or setup timezone preferences in your user account.

Time Position Orientation Groundspeed Altitude Reporting Facility
EDT Latitude Longitude Course Direction KTS MPH feet Rate Location/Type
05:48PM -19.8526 -160.2195 126° Southeast  Level Estimated
05:49PM -19.8303 -160.1891 52° Northeast  Level Estimated
05:50PM -19.8087 -160.1596 52° Northeast  Level Estimated
05:51PM -19.7871 -160.1301 52° Northeast  Level Estimated
05:52PM -19.7655 -160.1006 52° Northeast  Level Estimated
05:53PM -19.7439 -160.0712 52° Northeast  Level Estimated
05:54PM -19.7222 -160.0417 52° Northeast  Level Estimated
05:55PM -19.7006 -160.0123 52° Northeast  Level Estimated
05:56PM -19.6790 -159.9828 52° Northeast  Level Estimated
05:57PM -19.6573 -159.9534 52° Northeast  Level Estimated
05:58PM -19.6357 -159.9240 52° Northeast  Level Estimated
05:59PM -19.6140 -159.8946 52° Northeast  Level Estimated
06:00PM -19.5924 -159.8652 52° Northeast  Level Estimated
06:01PM -19.5707 -159.8358 52° Northeast  Level Estimated
06:02PM -19.5490 -159.8064 52° Northeast  Level Estimated
06:03PM -19.5274 -159.7770 52° Northeast  Level Estimated
06:04PM -19.5057 -159.7477 52° Northeast  Level Estimated
06:05PM -19.4840 -159.7183 52° Northeast  Level Estimated
06:06PM -19.4624 -159.6889 52° Northeast  Level Estimated
06:07PM -19.4407 -159.6596 52° Northeast  Level Estimated
06:08PM -19.4190 -159.6302 52° Northeast  Level Estimated
06:09PM -19.3973 -159.6009 52° Northeast  Level Estimated
06:10PM -19.3756 -159.5716 52° Northeast  Level Estimated
06:11PM -19.3539 -159.5423 52° Northeast  Level Estimated
06:12PM -19.3322 -159.5130 52° Northeast  Level Estimated
06:13PM -19.3104 -159.4837 52° Northeast  Level Estimated
06:14PM -19.2887 -159.4544 52° Northeast  Level Estimated
06:15PM -19.2670 -159.4251 52° Northeast  Level Estimated
06:16PM -19.2453 -159.3958 52° Northeast  Level Estimated
06:17PM -19.2235 -159.3665 52° Northeast  Level Estimated
06:18PM -19.2018 -159.3373 52° Northeast  Level Estimated
06:19PM -19.1801 -159.3080 52° Northeast  Level Estimated
06:20PM -19.1583 -159.2788 52° Northeast  Level Estimated
06:21PM -19.1366 -159.2495 52° Northeast  Level Estimated
06:22PM -19.1148 -159.2203 52° Northeast  Level Estimated
06:23PM -19.0930 -159.1911 52° Northeast  Level Estimated
06:24PM -19.0713 -159.1618 52° Northeast  Level Estimated
06:25PM -19.0495 -159.1326 52° Northeast  Level Estimated
06:26PM -19.0277 -159.1034 52° Northeast  Level Estimated
06:27PM -19.0060 -159.0742 52° Northeast  Level Estimated
06:28PM -18.9842 -159.0451 52° Northeast  Level Estimated
06:29PM -18.9624 -159.0159 52° Northeast  Level Estimated
06:30PM -18.9406 -158.9867 52° Northeast  Level Estimated
06:31PM -18.9188 -158.9576 52° Northeast  Level Estimated
06:32PM -18.8970 -158.9284 52° Northeast  Level Estimated
06:33PM -18.8752 -158.8992 52° Northeast  Level Estimated
06:34PM -18.8534 -158.8701 52° Northeast  Level Estimated
06:35PM -18.8316 -158.8410 52° Northeast  Level Estimated
06:36PM -18.8097 -158.8118 52° Northeast  Level Estimated
06:37PM -18.7879 -158.7827 52° Northeast  Level Estimated
06:38PM -18.7661 -158.7536 52° Northeast  Level Estimated